臺北終端管制區 - 桃園掃描雷達席

METAR RCTP 170430Z 07025KT 9999 FEW020 35/25 Q1000 WS ALL RWY NOSIG RMK A2954=

站台狀態:Online
最後更新:2019-07-17 12:45:01